createdAt,value
2019-04-01T00:01:32.854Z,47.69
2019-04-01T00:04:02.809Z,47.73
2019-04-01T00:06:32.697Z,48.00
2019-04-01T00:09:02.598Z,48.30
2019-04-01T00:11:32.467Z,48.28
2019-04-01T00:14:02.320Z,48.47
2019-04-01T00:16:32.732Z,48.78
2019-04-01T00:19:03.676Z,49.01
2019-04-01T00:21:34.129Z,49.10
2019-04-01T00:24:03.973Z,49.30
2019-04-01T00:26:33.855Z,49.51
2019-04-01T00:29:03.745Z,49.74
2019-04-01T00:31:33.858Z,49.90
2019-04-01T00:34:03.731Z,50.12
2019-04-01T00:36:33.924Z,50.42
2019-04-01T00:39:05.737Z,50.63
2019-04-01T00:41:39.169Z,50.75
2019-04-01T00:44:12.085Z,50.96
2019-04-01T00:46:41.952Z,51.24
2019-04-01T00:49:11.836Z,51.27
2019-04-01T00:51:41.986Z,51.54
2019-04-01T00:54:11.837Z,51.54
2019-04-01T00:56:42.392Z,51.74
2019-04-01T00:59:12.261Z,51.79
2019-04-01T01:01:42.923Z,51.87
2019-04-01T01:04:12.787Z,52.10
2019-04-01T01:06:42.665Z,52.27
2019-04-01T01:09:12.558Z,52.38
2019-04-01T01:11:43.075Z,52.36
2019-04-01T01:14:12.935Z,52.43
2019-04-01T01:16:42.899Z,52.48
2019-04-01T01:19:12.770Z,52.65
2019-04-01T01:21:42.775Z,52.69
2019-04-01T01:24:12.761Z,52.69
2019-04-01T01:26:42.671Z,52.75
2019-04-01T01:29:13.148Z,53.20
2019-04-01T01:31:43.036Z,53.50
2019-04-01T01:34:13.228Z,53.24
2019-04-01T01:36:43.447Z,53.43
2019-04-01T01:39:13.323Z,53.50
2019-04-01T01:41:43.189Z,53.32
2019-04-01T01:44:13.073Z,53.20
2019-04-01T01:46:42.935Z,53.06
2019-04-01T01:49:13.148Z,53.15
2019-04-01T01:51:43.018Z,53.40
2019-04-01T01:54:13.122Z,53.55
2019-04-01T01:56:43.292Z,53.66
2019-04-01T01:59:13.771Z,53.70
2019-04-01T02:01:43.935Z,53.63
2019-04-01T02:04:13.807Z,53.34
2019-04-01T02:06:43.699Z,53.38
2019-04-01T02:09:13.582Z,53.29
2019-04-01T02:11:43.810Z,53.33
2019-04-01T02:14:13.679Z,53.42
2019-04-01T02:16:43.568Z,53.27
2019-04-01T02:19:13.458Z,53.39
2019-04-01T02:21:43.340Z,53.47
2019-04-01T02:24:13.579Z,53.31
2019-04-01T02:26:43.466Z,53.11
2019-04-01T02:29:13.442Z,52.97
2019-04-01T02:31:43.354Z,53.07
2019-04-01T02:34:13.260Z,52.99
2019-04-01T02:36:43.197Z,52.80
2019-04-01T02:39:13.094Z,52.92
2019-04-01T02:41:43.049Z,52.87
2019-04-01T02:44:12.949Z,52.79
2019-04-01T02:46:43.130Z,52.66
2019-04-01T02:49:13.320Z,52.64
2019-04-01T02:51:43.289Z,52.75
2019-04-01T02:54:13.216Z,52.83
2019-04-01T02:56:43.368Z,52.83
2019-04-01T02:59:13.215Z,52.69
2019-04-01T03:01:43.446Z,52.50
2019-04-01T03:04:13.968Z,52.78
2019-04-01T03:06:44.201Z,52.80
2019-04-01T03:09:14.380Z,52.96
2019-04-01T03:11:44.607Z,53.03
2019-04-01T03:14:14.493Z,53.16
2019-04-01T03:16:44.447Z,53.24
2019-04-01T03:19:14.268Z,53.34
2019-04-01T03:21:44.609Z,53.54
2019-04-01T03:24:14.808Z,53.77
2019-04-01T03:26:44.674Z,54.00
2019-04-01T03:29:14.551Z,54.21
2019-04-01T03:31:44.444Z,54.32
2019-04-01T03:34:14.361Z,54.57
2019-04-01T03:36:44.389Z,54.81
2019-04-01T03:39:14.256Z,55.10
2019-04-01T03:41:44.121Z,55.16
2019-04-01T03:44:14.115Z,55.28
2019-04-01T03:46:44.297Z,55.38
2019-04-01T03:49:14.159Z,55.51
2019-04-01T03:51:44.041Z,55.65
2019-04-01T03:54:13.948Z,55.87
2019-04-01T03:56:43.836Z,56.17
2019-04-01T03:59:14.348Z,56.33
2019-04-01T04:01:44.363Z,56.62
2019-04-01T04:04:14.244Z,56.93
2019-04-01T04:06:45.032Z,57.22
2019-04-01T04:09:14.883Z,57.28
2019-04-01T04:11:45.137Z,57.39
2019-04-01T04:14:15.962Z,57.75
2019-04-01T04:16:45.830Z,58.08
2019-04-01T04:19:18.963Z,58.36
2019-04-01T04:21:49.471Z,58.71
2019-04-01T04:24:20.103Z,59.03
2019-04-01T04:26:50.066Z,59.20
2019-04-01T04:29:20.238Z,59.55
2019-04-01T04:31:50.157Z,59.95
2019-04-01T04:34:20.055Z,60.02
2019-04-01T04:36:49.916Z,60.63
2019-04-01T04:39:19.752Z,60.78
2019-04-01T04:41:49.950Z,60.91
2019-04-01T04:44:19.861Z,61.01
2019-04-01T04:46:49.926Z,61.27
2019-04-01T04:49:19.747Z,61.32
2019-04-01T04:51:49.601Z,61.55
2019-04-01T04:54:19.829Z,61.67
2019-04-01T04:56:49.655Z,61.94
2019-04-01T04:59:19.655Z,61.89
2019-04-01T05:01:49.559Z,61.95
2019-04-01T05:04:19.412Z,61.85
2019-04-01T05:06:49.330Z,61.85
2019-04-01T05:09:19.522Z,61.96
2019-04-01T05:11:49.430Z,61.83
2019-04-01T05:14:19.279Z,61.79
2019-04-01T05:16:49.142Z,61.68
2019-04-01T05:19:19.155Z,61.70
2019-04-01T05:21:49.476Z,61.61
2019-04-01T05:24:19.744Z,61.55
2019-04-01T05:26:50.712Z,61.48
2019-04-01T05:29:22.871Z,61.18
2019-04-01T05:31:55.288Z,61.03
2019-04-01T05:34:28.736Z,60.86
2019-04-01T05:36:58.700Z,60.56
2019-04-01T05:39:29.592Z,60.91
2019-04-01T05:42:00.811Z,60.80
2019-04-01T05:44:30.807Z,60.53
2019-04-01T05:47:00.930Z,60.30
2019-04-01T05:49:31.137Z,60.36
2019-04-01T05:52:01.077Z,60.76
2019-04-01T05:54:31.716Z,60.46
2019-04-01T05:57:02.087Z,61.16
2019-04-01T05:59:32.223Z,59.53
2019-04-01T06:02:02.547Z,59.02
2019-04-01T06:04:32.570Z,58.52
2019-04-01T06:07:02.683Z,58.50
2019-04-01T06:09:32.609Z,57.56
2019-04-01T06:12:02.622Z,57.29
2019-04-01T06:14:32.864Z,57.40
2019-04-01T06:17:03.176Z,56.21
2019-04-01T06:19:33.140Z,56.43
2019-04-01T06:22:03.551Z,55.99
2019-04-01T06:24:33.425Z,55.27
2019-04-01T06:27:03.348Z,54.53
2019-04-01T06:29:33.588Z,54.49
2019-04-01T06:32:03.638Z,53.76
2019-04-01T06:34:33.920Z,52.73
2019-04-01T06:37:03.921Z,52.05
2019-04-01T06:39:33.791Z,52.25
2019-04-01T06:42:07.064Z,51.79
2019-04-01T06:44:35.899Z,51.27
2019-04-01T06:47:05.838Z,50.93
2019-04-01T06:49:36.179Z,50.03
2019-04-01T06:52:06.095Z,49.30
2019-04-01T06:54:36.027Z,48.81
2019-04-01T06:57:05.931Z,48.69
2019-04-01T06:59:35.997Z,48.14
2019-04-01T07:02:05.853Z,47.74
2019-04-01T07:04:36.186Z,47.24
2019-04-01T07:07:18.362Z,46.41
2019-04-01T07:09:38.372Z,46.31
2019-04-01T07:12:08.304Z,45.20
2019-04-01T07:14:38.410Z,45.20
2019-04-01T07:17:08.243Z,44.49
2019-04-01T07:19:38.236Z,44.03
2019-04-01T07:22:08.176Z,43.68
2019-04-01T07:24:38.160Z,44.37
2019-04-01T07:27:08.396Z,44.53
2019-04-01T07:29:38.814Z,44.67
2019-04-01T07:32:08.652Z,45.38
2019-04-01T07:34:38.700Z,44.79
2019-04-01T07:37:08.578Z,44.96
2019-04-01T07:39:38.727Z,44.32
2019-04-01T07:42:08.671Z,44.19
2019-04-01T07:44:39.021Z,43.68
2019-04-01T07:47:08.874Z,43.77
2019-04-01T07:49:38.807Z,43.29
2019-04-01T07:52:08.844Z,42.96
2019-04-01T07:54:38.782Z,48.43
2019-04-01T07:57:08.695Z,41.50
2019-04-01T07:59:39.156Z,41.62
2019-04-01T08:02:09.130Z,41.74
2019-04-01T08:04:39.137Z,41.48
2019-04-01T08:07:09.057Z,40.89
2019-04-01T08:09:39.285Z,40.84
2019-04-01T08:12:09.325Z,40.85
2019-04-01T08:14:39.245Z,40.51
2019-04-01T08:17:09.301Z,40.31
2019-04-01T08:19:39.758Z,40.15
2019-04-01T08:22:09.752Z,40.88
2019-04-01T08:24:39.591Z,38.91
2019-04-01T08:27:09.790Z,38.41
2019-04-01T08:29:39.699Z,37.92
2019-04-01T08:32:09.570Z,37.54
2019-04-01T08:34:39.746Z,38.10
2019-04-01T08:37:10.070Z,37.33
2019-04-01T08:39:40.044Z,37.15
2019-04-01T08:42:10.249Z,36.79
2019-04-01T08:44:40.091Z,36.67
2019-04-01T08:47:09.914Z,36.59
2019-04-01T08:49:39.853Z,36.68
2019-04-01T08:52:10.092Z,36.38
2019-04-01T08:54:40.377Z,36.62
2019-04-01T08:57:10.305Z,35.85
2019-04-01T08:59:40.145Z,36.07
2019-04-01T09:02:17.869Z,36.38
2019-04-01T09:04:41.601Z,36.11
2019-04-01T09:07:11.482Z,35.63
2019-04-01T09:09:42.333Z,35.78
2019-04-01T09:12:12.620Z,35.63
2019-04-01T09:14:43.143Z,35.43
2019-04-01T09:17:13.550Z,35.57
2019-04-01T09:19:43.400Z,36.11
2019-04-01T09:22:13.316Z,35.05
2019-04-01T09:24:43.188Z,34.75
2019-04-01T09:27:13.066Z,34.25
2019-04-01T09:29:43.038Z,31.86
2019-04-01T09:32:13.245Z,26.55
2019-04-01T09:34:43.217Z,24.94
2019-04-01T09:37:13.134Z,24.14
2019-04-01T09:39:42.986Z,22.89
2019-04-01T09:42:12.810Z,23.17
2019-04-01T09:44:42.660Z,22.16
2019-04-01T09:47:12.940Z,22.32
2019-04-01T09:49:43.199Z,21.89
2019-04-01T09:52:13.065Z,22.43
2019-04-01T09:54:42.887Z,22.12
2019-04-01T09:57:17.856Z,22.30
2019-04-01T09:59:44.363Z,22.37
2019-04-01T10:02:14.293Z,21.82
2019-04-01T10:04:44.142Z,22.38
2019-04-01T10:07:14.099Z,22.08
2019-04-01T10:09:43.941Z,22.09
2019-04-01T10:12:14.123Z,21.82
2019-04-01T10:14:44.336Z,22.20
2019-04-01T10:17:14.194Z,24.14
2019-04-01T10:19:44.393Z,23.53
2019-04-01T10:22:14.585Z,24.09
2019-04-01T10:24:44.484Z,24.12
2019-04-01T10:27:14.383Z,24.20
2019-04-01T10:29:44.342Z,24.41
2019-04-01T10:32:14.190Z,24.69
2019-04-01T10:34:44.114Z,24.13
2019-04-01T10:37:13.953Z,24.30
2019-04-01T10:39:44.175Z,24.52
2019-04-01T10:42:14.025Z,24.86
2019-04-01T10:44:43.880Z,25.05
2019-04-01T10:47:13.734Z,25.49
2019-04-01T10:49:44.025Z,25.73
2019-04-01T10:52:13.939Z,26.71
2019-04-01T10:54:43.890Z,26.02
2019-04-01T10:57:13.847Z,26.29
2019-04-01T10:59:43.956Z,27.01
2019-04-01T11:02:14.060Z,27.21
2019-04-01T11:04:43.999Z,27.03
2019-04-01T11:07:13.853Z,27.60
2019-04-01T11:09:43.698Z,26.90
2019-04-01T11:12:13.617Z,26.83
2019-04-01T11:14:43.481Z,26.35
2019-04-01T11:17:13.309Z,27.30
2019-04-01T11:19:43.395Z,26.51
2019-04-01T11:22:13.271Z,27.25
2019-04-01T11:24:43.215Z,28.03
2019-04-01T11:27:13.399Z,29.78
2019-04-01T11:29:43.749Z,30.36
2019-04-01T11:32:13.916Z,30.84
2019-04-01T11:34:43.950Z,30.77
2019-04-01T11:37:14.062Z,30.79
2019-04-01T11:39:44.068Z,30.83
2019-04-01T11:42:13.965Z,31.37
2019-04-01T11:44:43.772Z,31.79
2019-04-01T11:47:13.799Z,31.02
2019-04-01T11:49:44.028Z,29.83
2019-04-01T11:52:15.756Z,30.05
2019-04-01T11:54:45.552Z,30.21
2019-04-01T11:57:15.374Z,30.26
2019-04-01T11:59:45.585Z,29.87
2019-04-01T12:02:16.488Z,29.70
2019-04-01T12:04:46.746Z,29.79
2019-04-01T12:07:16.688Z,30.51
2019-04-01T12:09:46.617Z,30.37
2019-04-01T12:12:23.585Z,30.47
2019-04-01T12:14:48.068Z,29.90
2019-04-01T12:17:17.950Z,29.22
2019-04-01T12:19:47.789Z,29.73
2019-04-01T12:22:19.836Z,29.70
2019-04-01T12:24:49.552Z,29.34
2019-04-01T12:27:19.385Z,29.54
2019-04-01T12:29:49.259Z,29.39
2019-04-01T12:32:19.794Z,29.85
2019-04-01T12:34:50.452Z,29.48
2019-04-01T12:37:20.324Z,29.01
2019-04-01T12:39:50.524Z,28.40
2019-04-01T12:42:20.437Z,28.08
2019-04-01T12:44:50.693Z,28.45
2019-04-01T12:47:20.520Z,27.79
2019-04-01T12:49:50.384Z,28.32
2019-04-01T12:52:20.639Z,27.84
2019-04-01T12:54:50.480Z,27.94
2019-04-01T12:57:21.068Z,27.15
2019-04-01T12:59:51.130Z,25.74
2019-04-01T13:02:21.425Z,25.18
2019-04-01T13:04:51.692Z,25.67
2019-04-01T13:07:21.861Z,25.69
2019-04-01T13:09:51.911Z,25.14
2019-04-01T13:12:21.882Z,24.71
2019-04-01T13:14:55.384Z,25.19
2019-04-01T13:17:23.704Z,25.11
2019-04-01T13:19:53.540Z,25.09
2019-04-01T13:22:23.632Z,25.29
2019-04-01T13:24:53.516Z,25.26
2019-04-01T13:27:23.376Z,24.66
2019-04-01T13:29:53.223Z,25.38
2019-04-01T13:32:23.044Z,25.41
2019-04-01T13:34:52.955Z,25.95
2019-04-01T13:37:22.817Z,26.48
2019-04-01T13:39:52.820Z,25.75
2019-04-01T13:42:24.908Z,25.44
2019-04-01T13:44:54.280Z,24.27
2019-04-01T13:47:24.133Z,24.19
2019-04-01T13:49:54.233Z,23.92
2019-04-01T13:52:24.087Z,23.62
2019-04-01T13:54:54.164Z,24.37
2019-04-01T13:57:24.710Z,23.96
2019-04-01T13:59:54.581Z,24.23
2019-04-01T14:02:24.470Z,24.21
2019-04-01T14:04:54.339Z,24.28
2019-04-01T14:07:24.194Z,24.67
2019-04-01T14:09:55.215Z,25.00
2019-04-01T14:12:25.549Z,25.13
2019-04-01T14:14:55.703Z,24.80
2019-04-01T14:17:25.814Z,24.65
2019-04-01T14:19:55.819Z,25.31
2019-04-01T14:22:26.260Z,25.38
2019-04-01T14:24:56.094Z,25.09
2019-04-01T14:27:25.985Z,25.28
2019-04-01T14:29:56.178Z,25.24
2019-04-01T14:32:26.362Z,25.43
2019-04-01T14:34:56.969Z,25.91
2019-04-01T14:37:29.937Z,25.68
2019-04-01T14:39:58.465Z,25.61
2019-04-01T14:42:28.403Z,25.15
2019-04-01T14:45:02.312Z,24.71
2019-04-01T14:47:32.664Z,24.94
2019-04-01T14:50:04.371Z,24.98
2019-04-01T14:52:34.498Z,25.25
2019-04-01T14:55:04.941Z,25.40
2019-04-01T14:57:35.145Z,25.75
2019-04-01T15:00:06.551Z,24.82
2019-04-01T15:02:36.668Z,24.45
2019-04-01T15:05:07.384Z,25.95
2019-04-01T15:07:37.236Z,25.66
2019-04-01T15:10:08.159Z,25.75
2019-04-01T15:12:38.743Z,26.13
2019-04-01T15:15:10.231Z,25.93
2019-04-01T15:17:40.050Z,26.40
2019-04-01T15:20:11.275Z,25.54
2019-04-01T15:22:41.140Z,25.14
2019-04-01T15:25:11.280Z,25.39
2019-04-01T15:27:41.214Z,26.56
2019-04-01T15:30:14.118Z,26.14
2019-04-01T15:32:43.436Z,26.17
2019-04-01T15:35:14.480Z,26.06
2019-04-01T15:37:44.328Z,26.06
2019-04-01T15:40:14.794Z,25.95
2019-04-01T15:42:44.738Z,26.13
2019-04-01T15:45:14.770Z,26.25
2019-04-01T15:47:44.627Z,26.92
2019-04-01T15:50:27.741Z,26.91
2019-04-01T15:52:46.496Z,26.90
2019-04-01T15:55:16.652Z,26.37
2019-04-01T15:57:46.569Z,26.67
2019-04-01T16:00:19.402Z,26.70
2019-04-01T16:02:49.010Z,27.02
2019-04-01T16:05:18.865Z,26.99
2019-04-01T16:07:49.035Z,26.85
2019-04-01T16:10:18.909Z,26.74
2019-04-01T16:12:48.916Z,26.80
2019-04-01T16:15:18.808Z,26.99
2019-04-01T16:17:48.975Z,27.53
2019-04-01T16:20:18.856Z,27.22
2019-04-01T16:22:49.297Z,27.53
2019-04-01T16:25:20.199Z,27.74
2019-04-01T16:27:50.111Z,27.72
2019-04-01T16:30:19.953Z,27.87
2019-04-01T16:32:49.771Z,28.31
2019-04-01T16:35:19.687Z,28.26
2019-04-01T16:37:49.610Z,28.69
2019-04-01T16:40:19.637Z,28.49
2019-04-01T16:42:49.486Z,28.54
2019-04-01T16:45:21.131Z,28.54
2019-04-01T16:47:50.968Z,28.87
2019-04-01T16:50:21.069Z,29.05
2019-04-01T16:52:50.905Z,29.58
2019-04-01T16:55:20.965Z,29.63
2019-04-01T16:57:50.917Z,29.83
2019-04-01T17:00:22.814Z,29.99
2019-04-01T17:02:52.909Z,30.02
2019-04-01T17:05:32.347Z,30.36
2019-04-01T17:08:02.439Z,30.54
2019-04-01T17:10:33.184Z,30.71
2019-04-01T17:13:03.470Z,30.91
2019-04-01T17:15:33.411Z,31.14
2019-04-01T17:18:03.325Z,30.91
2019-04-01T17:20:33.408Z,31.29
2019-04-01T17:23:03.254Z,31.33
2019-04-01T17:25:33.238Z,31.35
2019-04-01T17:28:03.382Z,31.23
2019-04-01T17:30:33.270Z,31.69
2019-04-01T17:33:03.199Z,31.62
2019-04-01T17:35:33.074Z,31.77
2019-04-01T17:38:02.930Z,31.91
2019-04-01T17:40:33.288Z,31.95
2019-04-01T17:43:03.152Z,31.95
2019-04-01T17:45:41.039Z,32.21
2019-04-01T17:48:11.241Z,32.58
2019-04-01T17:50:41.257Z,32.38
2019-04-01T17:53:12.167Z,32.38
2019-04-01T17:55:45.299Z,32.29
2019-04-01T17:58:15.343Z,32.80
2019-04-01T18:00:50.049Z,32.63
2019-04-01T18:03:19.910Z,32.69
2019-04-01T18:05:49.737Z,32.83
2019-04-01T18:08:19.631Z,33.26
2019-04-01T18:10:49.473Z,33.35
2019-04-01T18:13:19.366Z,33.38
2019-04-01T18:15:49.252Z,33.61
2019-04-01T18:18:26.850Z,33.80
2019-04-01T18:20:50.798Z,33.69
2019-04-01T18:23:22.242Z,33.83
2019-04-01T18:25:52.179Z,33.77
2019-04-01T18:28:22.353Z,33.83
2019-04-01T18:30:52.212Z,33.95
2019-04-01T18:33:22.312Z,34.05
2019-04-01T18:35:52.175Z,34.14
2019-04-01T18:38:22.028Z,34.29
2019-04-01T18:40:52.171Z,34.38
2019-04-01T18:43:22.288Z,34.63
2019-04-01T18:45:52.188Z,34.65
2019-04-01T18:48:22.037Z,34.76
2019-04-01T18:50:51.950Z,34.73
2019-04-01T18:53:21.808Z,34.91
2019-04-01T18:55:52.893Z,35.02
2019-04-01T18:58:24.307Z,35.04
2019-04-01T19:00:54.978Z,35.13
2019-04-01T19:03:24.844Z,35.19
2019-04-01T19:05:55.041Z,35.41
2019-04-01T19:08:25.105Z,35.35
2019-04-01T19:11:02.092Z,35.87
2019-04-01T19:13:26.901Z,35.75
2019-04-01T19:15:57.561Z,35.78
2019-04-01T19:18:28.183Z,35.87
2019-04-01T19:21:04.412Z,35.89
2019-04-01T19:23:30.939Z,36.08
2019-04-01T19:26:01.034Z,36.00
2019-04-01T19:28:30.890Z,36.08
2019-04-01T19:31:00.753Z,36.33
2019-04-01T19:33:30.682Z,36.49
2019-04-01T19:36:01.383Z,36.53
2019-04-01T19:38:37.372Z,36.67
2019-04-01T19:41:07.224Z,36.99
2019-04-01T19:43:37.040Z,36.97
2019-04-01T19:46:06.926Z,37.16
2019-04-01T19:48:36.734Z,37.15
2019-04-01T19:51:06.908Z,37.21
2019-04-01T19:53:36.797Z,37.24
2019-04-01T19:56:06.707Z,37.41
2019-04-01T19:58:36.570Z,37.54
2019-04-01T20:01:06.537Z,37.59
2019-04-01T20:03:36.379Z,37.75
2019-04-01T20:06:07.653Z,37.82
2019-04-01T20:08:37.678Z,37.88
2019-04-01T20:11:07.606Z,37.91
2019-04-01T20:13:39.134Z,38.06
2019-04-01T20:16:10.229Z,38.21
2019-04-01T20:18:40.405Z,38.16
2019-04-01T20:21:10.581Z,38.35
2019-04-01T20:23:40.558Z,38.42
2019-04-01T20:26:10.386Z,38.56
2019-04-01T20:28:40.233Z,38.61
2019-04-01T20:31:10.152Z,38.67
2019-04-01T20:33:40.011Z,38.58
2019-04-01T20:36:09.937Z,38.64
2019-04-01T20:38:39.793Z,38.63
2019-04-01T20:41:09.963Z,38.49
2019-04-01T20:43:39.805Z,38.71
2019-04-01T20:46:10.145Z,38.71
2019-04-01T20:48:41.278Z,38.73
2019-04-01T20:51:11.180Z,39.01
2019-04-01T20:53:41.028Z,38.96
2019-04-01T20:56:10.898Z,38.90
2019-04-01T20:58:41.259Z,38.73
2019-04-01T21:01:11.966Z,38.80
2019-04-01T21:03:42.462Z,38.88
2019-04-01T21:06:12.325Z,38.88
2019-04-01T21:09:01.407Z,39.00
2019-04-01T21:11:31.600Z,39.08
2019-04-01T21:14:03.111Z,39.25
2019-04-01T21:16:33.187Z,39.37
2019-04-01T21:19:05.391Z,39.48
2019-04-01T21:21:35.597Z,39.61
2019-04-01T21:24:05.843Z,39.72
2019-04-01T21:26:35.699Z,39.70
2019-04-01T21:29:05.648Z,39.83
2019-04-01T21:31:35.497Z,39.79
2019-04-01T21:34:07.792Z,40.15
2019-04-01T21:36:37.720Z,40.06
2019-04-01T21:39:08.431Z,40.26
2019-04-01T21:41:38.627Z,40.11
2019-04-01T21:44:08.520Z,40.38
2019-04-01T21:46:39.612Z,40.40
2019-04-01T21:49:09.744Z,40.59
2019-04-01T21:51:39.713Z,40.61
2019-04-01T21:54:09.947Z,40.76
2019-04-01T21:56:39.783Z,40.79
2019-04-01T21:59:09.658Z,40.81
2019-04-01T22:01:39.576Z,40.80
2019-04-01T22:04:10.267Z,40.90
2019-04-01T22:06:41.490Z,40.94
2019-04-01T22:09:11.885Z,40.86
2019-04-01T22:11:41.797Z,40.98
2019-04-01T22:14:11.659Z,40.90
2019-04-01T22:16:41.577Z,40.91
2019-04-01T22:19:12.295Z,40.96
2019-04-01T22:21:42.583Z,40.98
2019-04-01T22:24:12.464Z,41.04
2019-04-01T22:26:42.675Z,41.05
2019-04-01T22:29:12.917Z,41.05
2019-04-01T22:31:44.020Z,41.12
2019-04-01T22:34:14.640Z,41.26
2019-04-01T22:36:44.528Z,41.23
2019-04-01T22:39:21.918Z,41.40
2019-04-01T22:41:45.988Z,41.53
2019-04-01T22:44:16.180Z,41.61
2019-04-01T22:46:47.387Z,41.81
2019-04-01T22:49:17.498Z,41.85
2019-04-01T22:51:47.381Z,41.89
2019-04-01T22:54:17.642Z,42.05
2019-04-01T22:56:47.856Z,42.22
2019-04-01T22:59:17.730Z,42.07
2019-04-01T23:01:48.144Z,42.18
2019-04-01T23:04:18.125Z,42.31
2019-04-01T23:06:48.289Z,42.48
2019-04-01T23:09:18.209Z,42.47
2019-04-01T23:11:48.339Z,42.60
2019-04-01T23:14:18.215Z,42.66
2019-04-01T23:16:48.648Z,42.74
2019-04-01T23:19:19.125Z,42.88
2019-04-01T23:21:49.044Z,42.86
2019-04-01T23:24:18.895Z,43.07
2019-04-01T23:26:48.791Z,43.16
2019-04-01T23:29:19.308Z,43.06
2019-04-01T23:31:49.209Z,43.25
2019-04-01T23:34:19.126Z,43.46
2019-04-01T23:36:49.554Z,43.56
2019-04-01T23:39:20.069Z,43.78
2019-04-01T23:41:49.903Z,44.03
2019-04-01T23:44:20.044Z,44.10
2019-04-01T23:46:50.099Z,44.05
2019-04-01T23:49:20.267Z,44.16
2019-04-01T23:51:50.141Z,44.24
2019-04-01T23:54:20.294Z,44.14
2019-04-01T23:56:50.171Z,44.37
2019-04-01T23:59:20.474Z,44.63
